sensor_id;sensor_type;location;lat;lon;timestamp;temperature;humidity
19007;DHT22;9636;47.382;8.480;2022-09-09T00:01:51;14.60;99.90
19007;DHT22;9636;47.382;8.480;2022-09-09T00:04:25;14.70;99.90
19007;DHT22;9636;47.382;8.480;2022-09-09T00:06:59;14.70;99.90
19007;DHT22;9636;47.382;8.480;2022-09-09T00:09:30;14.70;99.90
19007;DHT22;9636;47.382;8.480;2022-09-09T00:12:02;14.70;99.90
19007;DHT22;9636;47.382;8.480;2022-09-09T00:14:37;14.60;99.90
19007;DHT22;9636;47.382;8.480;2022-09-09T00:17:11;14.70;99.90
19007;DHT22;9636;47.382;8.480;2022-09-09T00:19:45;14.80;99.90
19007;DHT22;9636;47.382;8.480;2022-09-09T00:22:17;14.80;99.90
19007;DHT22;9636;47.382;8.480;2022-09-09T00:24:46;14.90;99.90
19007;DHT22;9636;47.382;8.480;2022-09-09T00:27:23;15.00;99.90
19007;DHT22;9636;47.382;8.480;2022-09-09T00:29:56;15.00;99.90
19007;DHT22;9636;47.382;8.480;2022-09-09T00:32:28;15.00;99.90
19007;DHT22;9636;47.382;8.480;2022-09-09T00:35:02;15.00;99.90
19007;DHT22;9636;47.382;8.480;2022-09-09T00:37:29;14.90;99.90
19007;DHT22;9636;47.382;8.480;2022-09-09T00:40:05;14.90;99.90
19007;DHT22;9636;47.382;8.480;2022-09-09T00:42:40;15.00;99.90
19007;DHT22;9636;47.382;8.480;2022-09-09T00:45:19;15.10;99.90
19007;DHT22;9636;47.382;8.480;2022-09-09T00:47:50;15.20;99.90
19007;DHT22;9636;47.382;8.480;2022-09-09T00:50:39;15.20;99.90
19007;DHT22;9636;47.382;8.480;2022-09-09T00:53:27;15.30;99.90
19007;DHT22;9636;47.382;8.480;2022-09-09T00:56:00;15.20;99.90
19007;DHT22;9636;47.382;8.480;2022-09-09T00:58:29;15.20;99.90
19007;DHT22;9636;47.382;8.480;2022-09-09T01:00:59;15.20;99.90
19007;DHT22;9636;47.382;8.480;2022-09-09T01:03:35;15.20;99.90
19007;DHT22;9636;47.382;8.480;2022-09-09T01:06:13;15.30;99.90
19007;DHT22;9636;47.382;8.480;2022-09-09T01:11:49;15.30;99.90
19007;DHT22;9636;47.382;8.480;2022-09-09T01:14:32;15.40;99.90
19007;DHT22;9636;47.382;8.480;2022-09-09T01:17:11;15.40;99.90
19007;DHT22;9636;47.382;8.480;2022-09-09T01:19:47;15.40;99.90
19007;DHT22;9636;47.382;8.480;2022-09-09T01:22:31;15.30;99.90
19007;DHT22;9636;47.382;8.480;2022-09-09T01:25:19;15.30;99.90
19007;DHT22;9636;47.382;8.480;2022-09-09T01:27:51;15.30;99.90
19007;DHT22;9636;47.382;8.480;2022-09-09T01:30:19;15.20;99.90
19007;DHT22;9636;47.382;8.480;2022-09-09T01:32:49;15.10;99.90
19007;DHT22;9636;47.382;8.480;2022-09-09T01:35:23;15.10;99.90
19007;DHT22;9636;47.382;8.480;2022-09-09T01:37:55;14.90;99.90
19007;DHT22;9636;47.382;8.480;2022-09-09T01:40:23;14.80;99.90
19007;DHT22;9636;47.382;8.480;2022-09-09T01:42:52;14.70;99.90
19007;DHT22;9636;47.382;8.480;2022-09-09T01:45:19;14.70;99.90
19007;DHT22;9636;47.382;8.480;2022-09-09T01:47:47;14.80;99.90
19007;DHT22;9636;47.382;8.480;2022-09-09T01:50:16;14.90;99.90
19007;DHT22;9636;47.382;8.480;2022-09-09T01:52:44;14.90;99.90
19007;DHT22;9636;47.382;8.480;2022-09-09T01:55:11;14.90;99.90
19007;DHT22;9636;47.382;8.480;2022-09-09T01:57:44;14.80;99.90
19007;DHT22;9636;47.382;8.480;2022-09-09T02:00:18;14.70;99.90
19007;DHT22;9636;47.382;8.480;2022-09-09T02:02:52;14.70;99.90
19007;DHT22;9636;47.382;8.480;2022-09-09T02:05:34;14.70;99.90
19007;DHT22;9636;47.382;8.480;2022-09-09T02:08:06;14.70;99.90
19007;DHT22;9636;47.382;8.480;2022-09-09T02:10:40;14.80;99.90
19007;DHT22;9636;47.382;8.480;2022-09-09T02:13:11;14.80;99.90
19007;DHT22;9636;47.382;8.480;2022-09-09T02:15:43;14.80;99.90
19007;DHT22;9636;47.382;8.480;2022-09-09T02:18:14;14.80;99.90
19007;DHT22;9636;47.382;8.480;2022-09-09T02:20:43;14.90;99.90
19007;DHT22;9636;47.382;8.480;2022-09-09T02:23:12;15.00;99.90
19007;DHT22;9636;47.382;8.480;2022-09-09T02:25:40;15.00;99.90
19007;DHT22;9636;47.382;8.480;2022-09-09T02:28:09;15.10;99.90
19007;DHT22;9636;47.382;8.480;2022-09-09T02:30:41;15.10;99.90
19007;DHT22;9636;47.382;8.480;2022-09-09T02:33:10;15.00;99.90
19007;DHT22;9636;47.382;8.480;2022-09-09T02:35:38;15.00;99.90
19007;DHT22;9636;47.382;8.480;2022-09-09T02:38:09;15.00;99.90
19007;DHT22;9636;47.382;8.480;2022-09-09T02:40:37;15.10;99.90
19007;DHT22;9636;47.382;8.480;2022-09-09T02:43:04;15.10;99.90
19007;DHT22;9636;47.382;8.480;2022-09-09T02:45:36;15.10;99.90
19007;DHT22;9636;47.382;8.480;2022-09-09T02:48:14;15.20;99.90
19007;DHT22;9636;47.382;8.480;2022-09-09T02:50:50;15.30;99.90
19007;DHT22;9636;47.382;8.480;2022-09-09T02:53:22;15.30;99.90
19007;DHT22;9636;47.382;8.480;2022-09-09T02:55:53;15.40;99.90
19007;DHT22;9636;47.382;8.480;2022-09-09T02:58:21;15.30;99.90
19007;DHT22;9636;47.382;8.480;2022-09-09T03:00:50;15.40;99.90
19007;DHT22;9636;47.382;8.480;2022-09-09T03:03:20;15.40;99.90
19007;DHT22;9636;47.382;8.480;2022-09-09T03:05:47;15.40;99.90
19007;DHT22;9636;47.382;8.480;2022-09-09T03:08:15;15.50;99.90
19007;DHT22;9636;47.382;8.480;2022-09-09T03:10:42;15.50;99.90
19007;DHT22;9636;47.382;8.480;2022-09-09T03:13:09;15.50;99.90
19007;DHT22;9636;47.382;8.480;2022-09-09T03:15:36;15.50;99.90
19007;DHT22;9636;47.382;8.480;2022-09-09T03:18:03;15.50;99.90
19007;DHT22;9636;47.382;8.480;2022-09-09T03:20:31;15.50;99.90
19007;DHT22;9636;47.382;8.480;2022-09-09T03:22:59;15.40;99.90
19007;DHT22;9636;47.382;8.480;2022-09-09T03:25:27;15.50;99.90
19007;DHT22;9636;47.382;8.480;2022-09-09T03:27:54;15.50;99.90
19007;DHT22;9636;47.382;8.480;2022-09-09T03:30:22;15.50;99.90
19007;DHT22;9636;47.382;8.480;2022-09-09T03:32:49;15.50;99.90
19007;DHT22;9636;47.382;8.480;2022-09-09T03:35:16;15.60;99.90
19007;DHT22;9636;47.382;8.480;2022-09-09T03:37:44;15.60;99.90
19007;DHT22;9636;47.382;8.480;2022-09-09T03:40:12;15.60;99.90
19007;DHT22;9636;47.382;8.480;2022-09-09T03:42:39;15.60;99.90
19007;DHT22;9636;47.382;8.480;2022-09-09T03:45:08;15.50;99.90
19007;DHT22;9636;47.382;8.480;2022-09-09T03:47:36;15.60;99.90
19007;DHT22;9636;47.382;8.480;2022-09-09T03:50:03;15.50;99.90
19007;DHT22;9636;47.382;8.480;2022-09-09T03:52:34;15.60;99.90
19007;DHT22;9636;47.382;8.480;2022-09-09T03:55:03;15.50;99.90
19007;DHT22;9636;47.382;8.480;2022-09-09T03:57:30;15.50;99.90
19007;DHT22;9636;47.382;8.480;2022-09-09T04:00:00;15.50;99.90
19007;DHT22;9636;47.382;8.480;2022-09-09T04:02:27;15.50;99.90
19007;DHT22;9636;47.382;8.480;2022-09-09T04:04:54;15.40;99.90
19007;DHT22;9636;47.382;8.480;2022-09-09T04:07:21;15.40;99.90
19007;DHT22;9636;47.382;8.480;2022-09-09T04:09:48;15.30;99.90
19007;DHT22;9636;47.382;8.480;2022-09-09T04:12:16;15.40;99.90
19007;DHT22;9636;47.382;8.480;2022-09-09T04:14:43;15.40;99.90
19007;DHT22;9636;47.382;8.480;2022-09-09T04:17:10;15.30;99.90
19007;DHT22;9636;47.382;8.480;2022-09-09T04:19:37;15.40;99.90
19007;DHT22;9636;47.382;8.480;2022-09-09T04:22:04;15.40;99.90
19007;DHT22;9636;47.382;8.480;2022-09-09T04:24:30;15.40;99.90
19007;DHT22;9636;47.382;8.480;2022-09-09T04:26:57;15.40;99.90
19007;DHT22;9636;47.382;8.480;2022-09-09T04:29:25;15.40;99.90
19007;DHT22;9636;47.382;8.480;2022-09-09T04:31:52;15.30;99.90
19007;DHT22;9636;47.382;8.480;2022-09-09T04:34:19;15.30;99.90
19007;DHT22;9636;47.382;8.480;2022-09-09T04:36:46;15.30;99.90
19007;DHT22;9636;47.382;8.480;2022-09-09T04:39:13;15.30;99.90
19007;DHT22;9636;47.382;8.480;2022-09-09T04:41:40;15.30;99.90
19007;DHT22;9636;47.382;8.480;2022-09-09T04:44:07;15.20;99.90
19007;DHT22;9636;47.382;8.480;2022-09-09T04:46:35;15.20;99.90
19007;DHT22;9636;47.382;8.480;2022-09-09T04:49:01;15.20;99.90
19007;DHT22;9636;47.382;8.480;2022-09-09T04:51:28;15.20;99.90
19007;DHT22;9636;47.382;8.480;2022-09-09T04:53:56;15.20;99.90
19007;DHT22;9636;47.382;8.480;2022-09-09T04:56:23;15.20;99.90
19007;DHT22;9636;47.382;8.480;2022-09-09T04:58:52;15.20;99.90
19007;DHT22;9636;47.382;8.480;2022-09-09T05:01:21;15.20;99.90
19007;DHT22;9636;47.382;8.480;2022-09-09T05:03:50;15.20;99.90
19007;DHT22;9636;47.382;8.480;2022-09-09T05:06:20;15.20;99.90
19007;DHT22;9636;47.382;8.480;2022-09-09T05:08:47;15.30;99.90
19007;DHT22;9636;47.382;8.480;2022-09-09T05:11:20;15.30;99.90
19007;DHT22;9636;47.382;8.480;2022-09-09T05:13:47;15.20;99.90
19007;DHT22;9636;47.382;8.480;2022-09-09T05:16:15;15.20;99.90
19007;DHT22;9636;47.382;8.480;2022-09-09T05:18:43;15.20;99.90
19007;DHT22;9636;47.382;8.480;2022-09-09T05:21:12;15.20;99.90
19007;DHT22;9636;47.382;8.480;2022-09-09T05:23:39;15.10;99.90
19007;DHT22;9636;47.382;8.480;2022-09-09T05:26:09;15.20;99.90
19007;DHT22;9636;47.382;8.480;2022-09-09T05:28:38;15.20;99.90
19007;DHT22;9636;47.382;8.480;2022-09-09T05:31:06;15.30;99.90
19007;DHT22;9636;47.382;8.480;2022-09-09T05:33:35;15.30;99.90
19007;DHT22;9636;47.382;8.480;2022-09-09T05:36:04;15.40;99.90
19007;DHT22;9636;47.382;8.480;2022-09-09T05:38:33;15.40;99.90
19007;DHT22;9636;47.382;8.480;2022-09-09T05:41:02;15.30;99.90
19007;DHT22;9636;47.382;8.480;2022-09-09T05:43:29;15.30;99.90
19007;DHT22;9636;47.382;8.480;2022-09-09T05:46:02;15.30;99.90
19007;DHT22;9636;47.382;8.480;2022-09-09T05:48:30;15.30;99.90
19007;DHT22;9636;47.382;8.480;2022-09-09T05:50:57;15.40;99.90
19007;DHT22;9636;47.382;8.480;2022-09-09T05:53:24;15.30;99.90
19007;DHT22;9636;47.382;8.480;2022-09-09T05:56:00;15.30;99.90
19007;DHT22;9636;47.382;8.480;2022-09-09T05:58:28;15.30;99.90
19007;DHT22;9636;47.382;8.480;2022-09-09T06:01:01;15.40;99.90
19007;DHT22;9636;47.382;8.480;2022-09-09T06:03:28;15.40;99.90
19007;DHT22;9636;47.382;8.480;2022-09-09T06:05:59;15.40;99.90
19007;DHT22;9636;47.382;8.480;2022-09-09T06:08:26;15.50;99.90
19007;DHT22;9636;47.382;8.480;2022-09-09T06:10:53;15.60;99.90
19007;DHT22;9636;47.382;8.480;2022-09-09T06:13:23;15.60;99.90
19007;DHT22;9636;47.382;8.480;2022-09-09T06:15:50;15.60;99.90
19007;DHT22;9636;47.382;8.480;2022-09-09T06:18:18;15.60;99.90
19007;DHT22;9636;47.382;8.480;2022-09-09T06:20:54;15.60;99.90
19007;DHT22;9636;47.382;8.480;2022-09-09T06:23:21;15.70;99.90
19007;DHT22;9636;47.382;8.480;2022-09-09T06:25:48;15.80;99.90
19007;DHT22;9636;47.382;8.480;2022-09-09T06:28:15;15.90;99.90
19007;DHT22;9636;47.382;8.480;2022-09-09T06:30:44;16.00;99.90
19007;DHT22;9636;47.382;8.480;2022-09-09T06:33:11;16.10;99.90
19007;DHT22;9636;47.382;8.480;2022-09-09T06:35:37;16.20;99.90
19007;DHT22;9636;47.382;8.480;2022-09-09T06:38:04;16.30;99.90
19007;DHT22;9636;47.382;8.480;2022-09-09T06:40:31;16.30;99.90
19007;DHT22;9636;47.382;8.480;2022-09-09T06:42:59;16.40;99.90
19007;DHT22;9636;47.382;8.480;2022-09-09T06:45:27;16.50;99.90
19007;DHT22;9636;47.382;8.480;2022-09-09T06:47:56;16.50;99.90
19007;DHT22;9636;47.382;8.480;2022-09-09T06:50:23;16.70;99.90
19007;DHT22;9636;47.382;8.480;2022-09-09T06:52:49;16.90;99.90
19007;DHT22;9636;47.382;8.480;2022-09-09T06:55:17;17.80;99.90
19007;DHT22;9636;47.382;8.480;2022-09-09T06:57:44;18.50;99.90
19007;DHT22;9636;47.382;8.480;2022-09-09T07:00:12;18.20;99.90
19007;DHT22;9636;47.382;8.480;2022-09-09T07:02:39;18.10;99.90
19007;DHT22;9636;47.382;8.480;2022-09-09T07:05:08;17.90;99.90
19007;DHT22;9636;47.382;8.480;2022-09-09T07:07:35;17.70;99.90
19007;DHT22;9636;47.382;8.480;2022-09-09T07:10:03;17.70;99.90
19007;DHT22;9636;47.382;8.480;2022-09-09T07:12:30;17.60;99.90
19007;DHT22;9636;47.382;8.480;2022-09-09T07:14:57;17.50;99.90
19007;DHT22;9636;47.382;8.480;2022-09-09T07:17:24;17.50;99.90
19007;DHT22;9636;47.382;8.480;2022-09-09T07:19:51;17.30;99.90
19007;DHT22;9636;47.382;8.480;2022-09-09T07:22:19;17.20;99.90
19007;DHT22;9636;47.382;8.480;2022-09-09T07:24:46;17.20;99.90
19007;DHT22;9636;47.382;8.480;2022-09-09T07:27:15;17.70;99.90
19007;DHT22;9636;47.382;8.480;2022-09-09T07:29:42;18.70;99.90
19007;DHT22;9636;47.382;8.480;2022-09-09T07:32:08;19.20;99.90
19007;DHT22;9636;47.382;8.480;2022-09-09T07:34:35;19.60;99.90
19007;DHT22;9636;47.382;8.480;2022-09-09T07:37:02;19.60;99.90
19007;DHT22;9636;47.382;8.480;2022-09-09T07:39:30;19.70;99.90
19007;DHT22;9636;47.382;8.480;2022-09-09T07:41:57;20.00;99.90
19007;DHT22;9636;47.382;8.480;2022-09-09T07:44:24;20.40;99.90
19007;DHT22;9636;47.382;8.480;2022-09-09T07:46:52;20.50;99.90
19007;DHT22;9636;47.382;8.480;2022-09-09T07:49:19;20.50;99.90
19007;DHT22;9636;47.382;8.480;2022-09-09T07:51:46;20.80;99.90
19007;DHT22;9636;47.382;8.480;2022-09-09T07:54:16;20.90;99.90
19007;DHT22;9636;47.382;8.480;2022-09-09T07:56:47;21.10;99.90
19007;DHT22;9636;47.382;8.480;2022-09-09T07:59:15;21.00;99.90
19007;DHT22;9636;47.382;8.480;2022-09-09T08:01:43;21.20;99.90
19007;DHT22;9636;47.382;8.480;2022-09-09T08:04:13;21.30;99.90
19007;DHT22;9636;47.382;8.480;2022-09-09T08:06:43;21.10;99.90
19007;DHT22;9636;47.382;8.480;2022-09-09T08:09:12;20.80;99.90
19007;DHT22;9636;47.382;8.480;2022-09-09T08:11:40;20.70;99.90
19007;DHT22;9636;47.382;8.480;2022-09-09T08:14:10;20.50;99.90
19007;DHT22;9636;47.382;8.480;2022-09-09T08:16:39;20.50;99.90
19007;DHT22;9636;47.382;8.480;2022-09-09T08:19:06;20.30;99.90
19007;DHT22;9636;47.382;8.480;2022-09-09T08:21:34;20.30;99.90
19007;DHT22;9636;47.382;8.480;2022-09-09T08:24:03;20.30;99.90
19007;DHT22;9636;47.382;8.480;2022-09-09T08:26:32;20.20;99.90
19007;DHT22;9636;47.382;8.480;2022-09-09T08:29:00;20.10;99.90
19007;DHT22;9636;47.382;8.480;2022-09-09T08:31:30;20.00;99.90
19007;DHT22;9636;47.382;8.480;2022-09-09T08:33:59;20.10;99.90
19007;DHT22;9636;47.382;8.480;2022-09-09T08:36:28;20.20;99.90
19007;DHT22;9636;47.382;8.480;2022-09-09T08:38:56;20.40;99.90
19007;DHT22;9636;47.382;8.480;2022-09-09T08:41:48;20.60;99.90
19007;DHT22;9636;47.382;8.480;2022-09-09T08:44:23;20.60;99.90
19007;DHT22;9636;47.382;8.480;2022-09-09T08:47:00;20.70;99.90
19007;DHT22;9636;47.382;8.480;2022-09-09T08:49:45;20.50;99.90
19007;DHT22;9636;47.382;8.480;2022-09-09T08:52:17;20.50;99.90
19007;DHT22;9636;47.382;8.480;2022-09-09T08:54:46;20.50;99.90
19007;DHT22;9636;47.382;8.480;2022-09-09T08:57:19;20.40;99.90
19007;DHT22;9636;47.382;8.480;2022-09-09T08:59:47;20.20;99.90
19007;DHT22;9636;47.382;8.480;2022-09-09T09:02:19;20.20;99.90
19007;DHT22;9636;47.382;8.480;2022-09-09T09:05:09;20.40;99.90
19007;DHT22;9636;47.382;8.480;2022-09-09T09:07:54;20.70;99.90
19007;DHT22;9636;47.382;8.480;2022-09-09T09:10:35;20.70;99.90
19007;DHT22;9636;47.382;8.480;2022-09-09T09:13:08;20.50;99.90
19007;DHT22;9636;47.382;8.480;2022-09-09T09:15:41;20.10;99.90
19007;DHT22;9636;47.382;8.480;2022-09-09T09:18:12;20.00;99.90
19007;DHT22;9636;47.382;8.480;2022-09-09T09:20:45;19.80;99.90
19007;DHT22;9636;47.382;8.480;2022-09-09T09:23:21;19.70;99.90
19007;DHT22;9636;47.382;8.480;2022-09-09T09:25:48;19.50;99.90
19007;DHT22;9636;47.382;8.480;2022-09-09T09:28:18;19.50;99.90
19007;DHT22;9636;47.382;8.480;2022-09-09T09:30:51;19.40;99.90
19007;DHT22;9636;47.382;8.480;2022-09-09T09:33:24;19.40;99.90
19007;DHT22;9636;47.382;8.480;2022-09-09T09:35:52;19.30;99.90
19007;DHT22;9636;47.382;8.480;2022-09-09T09:38:21;19.40;99.90
19007;DHT22;9636;47.382;8.480;2022-09-09T09:40:49;19.40;99.90
19007;DHT22;9636;47.382;8.480;2022-09-09T09:43:21;19.40;99.90
19007;DHT22;9636;47.382;8.480;2022-09-09T09:45:50;19.50;99.90
19007;DHT22;9636;47.382;8.480;2022-09-09T09:48:21;19.60;99.90
19007;DHT22;9636;47.382;8.480;2022-09-09T09:54:38;19.80;99.90
19007;DHT22;9636;47.382;8.480;2022-09-09T10:23:05;20.10;99.90
19007;DHT22;9636;47.382;8.480;2022-09-09T10:25:52;19.90;99.90
19007;DHT22;9636;47.382;8.480;2022-09-09T10:31:35;19.90;99.90
19007;DHT22;9636;47.382;8.480;2022-09-09T10:34:43;19.90;99.90
19007;DHT22;9636;47.382;8.480;2022-09-09T10:37:11;19.90;99.90
19007;DHT22;9636;47.382;8.480;2022-09-09T10:39:48;19.80;99.90
19007;DHT22;9636;47.382;8.480;2022-09-09T11:08:25;19.20;99.90
19007;DHT22;9636;47.382;8.480;2022-09-09T11:11:00;19.10;99.90
19007;DHT22;9636;47.382;8.480;2022-09-09T11:16:17;19.20;99.90
19007;DHT22;9636;47.382;8.480;2022-09-09T11:16:42;19.20;99.90
19007;DHT22;9636;47.382;8.480;2022-09-09T11:19:17;19.20;99.90
19007;DHT22;9636;47.382;8.480;2022-09-09T11:21:48;19.30;99.90
19007;DHT22;9636;47.382;8.480;2022-09-09T11:24:21;19.30;99.90
19007;DHT22;9636;47.382;8.480;2022-09-09T11:26:53;19.30;99.90
19007;DHT22;9636;47.382;8.480;2022-09-09T11:29:50;19.30;99.90
19007;DHT22;9636;47.382;8.480;2022-09-09T11:36:07;19.50;99.90
19007;DHT22;9636;47.382;8.480;2022-09-09T11:38:46;19.50;99.90
19007;DHT22;9636;47.382;8.480;2022-09-09T11:44:25;19.60;99.90
19007;DHT22;9636;47.382;8.480;2022-09-09T11:54:35;19.80;99.90
19007;DHT22;9636;47.382;8.480;2022-09-09T11:57:56;19.80;99.90
19007;DHT22;9636;47.382;8.480;2022-09-09T12:01:43;19.80;99.90
19007;DHT22;9636;47.382;8.480;2022-09-09T12:04:05;19.80;99.90
19007;DHT22;9636;47.382;8.480;2022-09-09T12:10:38;19.80;99.90
19007;DHT22;9636;47.382;8.480;2022-09-09T12:14:34;19.80;99.90
19007;DHT22;9636;47.382;8.480;2022-09-09T12:20:51;19.70;99.90
19007;DHT22;9636;47.382;8.480;2022-09-09T12:24:02;19.90;99.90
19007;DHT22;9636;47.382;8.480;2022-09-09T13:16:57;21.80;99.90
19007;DHT22;9636;47.382;8.480;2022-09-09T13:20:44;21.80;99.90
19007;DHT22;9636;47.382;8.480;2022-09-09T13:22:59;21.70;99.90
19007;DHT22;9636;47.382;8.480;2022-09-09T13:25:51;21.70;99.90
19007;DHT22;9636;47.382;8.480;2022-09-09T13:28:27;21.70;99.90
19007;DHT22;9636;47.382;8.480;2022-09-09T13:30:59;21.70;99.90
19007;DHT22;9636;47.382;8.480;2022-09-09T13:33:50;21.70;99.90
19007;DHT22;9636;47.382;8.480;2022-09-09T13:36:32;21.70;99.90
19007;DHT22;9636;47.382;8.480;2022-09-09T13:39:03;21.70;99.90
19007;DHT22;9636;47.382;8.480;2022-09-09T13:41:34;21.70;99.90
19007;DHT22;9636;47.382;8.480;2022-09-09T13:44:19;21.70;99.90
19007;DHT22;9636;47.382;8.480;2022-09-09T13:47:02;21.70;99.90
19007;DHT22;9636;47.382;8.480;2022-09-09T13:49:44;21.60;99.90
19007;DHT22;9636;47.382;8.480;2022-09-09T13:52:17;21.60;99.90
19007;DHT22;9636;47.382;8.480;2022-09-09T13:54:50;21.60;99.90
19007;DHT22;9636;47.382;8.480;2022-09-09T14:03:37;21.70;99.90
19007;DHT22;9636;47.382;8.480;2022-09-09T15:07:41;21.20;99.90
19007;DHT22;9636;47.382;8.480;2022-09-09T15:10:08;21.20;99.90
19007;DHT22;9636;47.382;8.480;2022-09-09T15:12:36;21.10;99.90
19007;DHT22;9636;47.382;8.480;2022-09-09T15:47:50;20.80;99.90
19007;DHT22;9636;47.382;8.480;2022-09-09T15:50:17;20.80;99.90
19007;DHT22;9636;47.382;8.480;2022-09-09T15:52:44;20.70;99.90
19007;DHT22;9636;47.382;8.480;2022-09-09T15:55:11;20.70;99.90
19007;DHT22;9636;47.382;8.480;2022-09-09T15:57:37;20.70;99.90
19007;DHT22;9636;47.382;8.480;2022-09-09T16:00:05;20.60;99.90
19007;DHT22;9636;47.382;8.480;2022-09-09T16:02:32;20.70;99.90
19007;DHT22;9636;47.382;8.480;2022-09-09T16:05:00;20.60;99.90
19007;DHT22;9636;47.382;8.480;2022-09-09T16:07:27;20.60;99.90
19007;DHT22;9636;47.382;8.480;2022-09-09T16:09:54;20.50;99.90
19007;DHT22;9636;47.382;8.480;2022-09-09T16:12:21;20.50;99.90
19007;DHT22;9636;47.382;8.480;2022-09-09T16:14:47;20.40;99.90
19007;DHT22;9636;47.382;8.480;2022-09-09T16:17:15;20.40;99.90
19007;DHT22;9636;47.382;8.480;2022-09-09T16:19:42;20.40;99.90
19007;DHT22;9636;47.382;8.480;2022-09-09T16:22:10;20.40;99.90
19007;DHT22;9636;47.382;8.480;2022-09-09T16:24:37;20.30;99.90
19007;DHT22;9636;47.382;8.480;2022-09-09T16:27:04;20.30;99.90
19007;DHT22;9636;47.382;8.480;2022-09-09T16:29:31;20.20;99.90
19007;DHT22;9636;47.382;8.480;2022-09-09T16:31:58;20.30;99.90
19007;DHT22;9636;47.382;8.480;2022-09-09T16:34:25;20.20;99.90
19007;DHT22;9636;47.382;8.480;2022-09-09T16:36:52;20.20;99.90
19007;DHT22;9636;47.382;8.480;2022-09-09T16:39:20;20.10;99.90
19007;DHT22;9636;47.382;8.480;2022-09-09T16:41:48;19.90;99.90
19007;DHT22;9636;47.382;8.480;2022-09-09T16:44:16;19.80;99.90
19007;DHT22;9636;47.382;8.480;2022-09-09T16:46:44;19.80;99.90
19007;DHT22;9636;47.382;8.480;2022-09-09T16:49:13;19.60;99.90
19007;DHT22;9636;47.382;8.480;2022-09-09T16:51:42;19.60;99.90
19007;DHT22;9636;47.382;8.480;2022-09-09T16:54:10;19.60;99.90
19007;DHT22;9636;47.382;8.480;2022-09-09T16:56:42;19.60;99.90
19007;DHT22;9636;47.382;8.480;2022-09-09T16:59:11;19.60;99.90
19007;DHT22;9636;47.382;8.480;2022-09-09T17:01:40;19.60;99.90
19007;DHT22;9636;47.382;8.480;2022-09-09T17:04:09;19.60;99.90
19007;DHT22;9636;47.382;8.480;2022-09-09T17:06:36;19.60;99.90
19007;DHT22;9636;47.382;8.480;2022-09-09T17:09:05;19.60;99.90
19007;DHT22;9636;47.382;8.480;2022-09-09T17:11:33;19.50;99.90
19007;DHT22;9636;47.382;8.480;2022-09-09T17:14:02;19.50;99.90
19007;DHT22;9636;47.382;8.480;2022-09-09T17:16:31;19.50;99.90
19007;DHT22;9636;47.382;8.480;2022-09-09T17:19:00;19.50;99.90
19007;DHT22;9636;47.382;8.480;2022-09-09T17:21:29;19.40;99.90
19007;DHT22;9636;47.382;8.480;2022-09-09T17:23:56;19.20;99.90
19007;DHT22;9636;47.382;8.480;2022-09-09T17:26:25;19.10;99.90
19007;DHT22;9636;47.382;8.480;2022-09-09T17:28:53;19.00;99.90
19007;DHT22;9636;47.382;8.480;2022-09-09T17:31:22;18.80;99.90
19007;DHT22;9636;47.382;8.480;2022-09-09T17:33:50;18.70;99.90
19007;DHT22;9636;47.382;8.480;2022-09-09T17:36:19;18.70;99.90
19007;DHT22;9636;47.382;8.480;2022-09-09T17:38:47;18.70;99.90
19007;DHT22;9636;47.382;8.480;2022-09-09T17:41:16;18.70;99.90
19007;DHT22;9636;47.382;8.480;2022-09-09T17:43:44;18.60;99.90
19007;DHT22;9636;47.382;8.480;2022-09-09T17:46:12;18.50;99.90
19007;DHT22;9636;47.382;8.480;2022-09-09T17:48:42;18.40;99.90
19007;DHT22;9636;47.382;8.480;2022-09-09T17:51:12;18.30;99.90
19007;DHT22;9636;47.382;8.480;2022-09-09T17:53:41;18.30;99.90
19007;DHT22;9636;47.382;8.480;2022-09-09T17:56:10;18.20;99.90
19007;DHT22;9636;47.382;8.480;2022-09-09T17:58:38;18.10;99.90
19007;DHT22;9636;47.382;8.480;2022-09-09T18:01:07;18.10;99.90
19007;DHT22;9636;47.382;8.480;2022-09-09T18:03:35;18.10;99.90
19007;DHT22;9636;47.382;8.480;2022-09-09T18:06:05;18.10;99.90
19007;DHT22;9636;47.382;8.480;2022-09-09T18:08:33;18.00;99.90
19007;DHT22;9636;47.382;8.480;2022-09-09T18:11:01;17.80;99.90
19007;DHT22;9636;47.382;8.480;2022-09-09T18:13:28;17.70;99.90
19007;DHT22;9636;47.382;8.480;2022-09-09T18:15:55;17.50;99.90
19007;DHT22;9636;47.382;8.480;2022-09-09T18:18:23;17.50;99.90
19007;DHT22;9636;47.382;8.480;2022-09-09T18:20:57;17.50;99.90
19007;DHT22;9636;47.382;8.480;2022-09-09T18:23:25;17.50;99.90
19007;DHT22;9636;47.382;8.480;2022-09-09T18:25:52;17.50;99.90
19007;DHT22;9636;47.382;8.480;2022-09-09T18:28:19;17.40;99.90
19007;DHT22;9636;47.382;8.480;2022-09-09T18:30:46;17.30;99.90
19007;DHT22;9636;47.382;8.480;2022-09-09T18:33:13;17.10;99.90
19007;DHT22;9636;47.382;8.480;2022-09-09T18:35:40;17.10;99.90
19007;DHT22;9636;47.382;8.480;2022-09-09T18:38:08;17.00;99.90
19007;DHT22;9636;47.382;8.480;2022-09-09T18:40:36;16.90;99.90
19007;DHT22;9636;47.382;8.480;2022-09-09T18:43:03;16.80;99.90
19007;DHT22;9636;47.382;8.480;2022-09-09T18:45:34;16.80;99.90
19007;DHT22;9636;47.382;8.480;2022-09-09T18:48:02;16.80;99.90
19007;DHT22;9636;47.382;8.480;2022-09-09T18:50:29;16.70;99.90
19007;DHT22;9636;47.382;8.480;2022-09-09T18:52:56;16.70;99.90
19007;DHT22;9636;47.382;8.480;2022-09-09T18:55:22;16.60;99.90
19007;DHT22;9636;47.382;8.480;2022-09-09T18:57:51;16.50;99.90
19007;DHT22;9636;47.382;8.480;2022-09-09T19:00:17;16.50;99.90
19007;DHT22;9636;47.382;8.480;2022-09-09T19:02:44;16.40;99.90
19007;DHT22;9636;47.382;8.480;2022-09-09T19:05:16;16.50;99.90
19007;DHT22;9636;47.382;8.480;2022-09-09T19:07:43;16.40;99.90
19007;DHT22;9636;47.382;8.480;2022-09-09T19:10:10;16.50;99.90
19007;DHT22;9636;47.382;8.480;2022-09-09T19:12:36;16.50;99.90
19007;DHT22;9636;47.382;8.480;2022-09-09T19:15:07;16.40;99.90
19007;DHT22;9636;47.382;8.480;2022-09-09T19:17:34;16.30;99.90
19007;DHT22;9636;47.382;8.480;2022-09-09T19:20:01;16.20;99.90
19007;DHT22;9636;47.382;8.480;2022-09-09T19:22:29;16.20;99.90
19007;DHT22;9636;47.382;8.480;2022-09-09T19:24:55;16.20;99.90
19007;DHT22;9636;47.382;8.480;2022-09-09T19:27:23;16.10;99.90
19007;DHT22;9636;47.382;8.480;2022-09-09T19:29:50;16.10;99.90
19007;DHT22;9636;47.382;8.480;2022-09-09T19:32:18;16.10;99.90
19007;DHT22;9636;47.382;8.480;2022-09-09T19:34:45;16.10;99.90
19007;DHT22;9636;47.382;8.480;2022-09-09T19:37:12;16.10;99.90
19007;DHT22;9636;47.382;8.480;2022-09-09T19:39:38;16.00;99.90
19007;DHT22;9636;47.382;8.480;2022-09-09T19:42:05;15.90;99.90
19007;DHT22;9636;47.382;8.480;2022-09-09T19:44:32;15.80;99.90
19007;DHT22;9636;47.382;8.480;2022-09-09T19:46:59;15.60;99.90
19007;DHT22;9636;47.382;8.480;2022-09-09T19:49:27;15.50;99.90
19007;DHT22;9636;47.382;8.480;2022-09-09T19:51:55;15.40;99.90
19007;DHT22;9636;47.382;8.480;2022-09-09T19:54:22;15.40;99.90
19007;DHT22;9636;47.382;8.480;2022-09-09T19:56:49;15.40;99.90
19007;DHT22;9636;47.382;8.480;2022-09-09T19:59:15;15.40;99.90
19007;DHT22;9636;47.382;8.480;2022-09-09T20:01:43;15.40;99.90
19007;DHT22;9636;47.382;8.480;2022-09-09T20:04:11;15.40;99.90